sensor_id;sensor_type;location;lat;lon;timestamp;P1;durP1;ratioP1;P2;durP2;ratioP2
11541;SDS011;5827;49.482;7.716;2023-03-16T00:00:46;8.93;;;7.43;;
11541;SDS011;5827;49.482;7.716;2023-03-16T00:02:47;8.87;;;6.63;;
11541;SDS011;5827;49.482;7.716;2023-03-16T00:04:49;8.70;;;6.97;;
11541;SDS011;5827;49.482;7.716;2023-03-16T00:06:51;11.47;;;7.33;;
11541;SDS011;5827;49.482;7.716;2023-03-16T00:08:52;8.23;;;6.63;;
11541;SDS011;5827;49.482;7.716;2023-03-16T00:10:58;10.00;;;6.97;;
11541;SDS011;5827;49.482;7.716;2023-03-16T00:13:03;9.33;;;6.67;;
11541;SDS011;5827;49.482;7.716;2023-03-16T00:15:05;9.80;;;7.30;;
11541;SDS011;5827;49.482;7.716;2023-03-16T00:17:08;7.93;;;6.73;;
11541;SDS011;5827;49.482;7.716;2023-03-16T00:19:17;10.70;;;7.20;;
11541;SDS011;5827;49.482;7.716;2023-03-16T00:21:21;9.13;;;7.13;;
11541;SDS011;5827;49.482;7.716;2023-03-16T00:23:23;8.17;;;6.60;;
11541;SDS011;5827;49.482;7.716;2023-03-16T00:25:27;7.70;;;6.57;;
11541;SDS011;5827;49.482;7.716;2023-03-16T00:27:28;8.50;;;6.77;;
11541;SDS011;5827;49.482;7.716;2023-03-16T00:29:32;9.60;;;7.33;;
11541;SDS011;5827;49.482;7.716;2023-03-16T00:31:33;10.73;;;7.57;;
11541;SDS011;5827;49.482;7.716;2023-03-16T00:33:35;8.63;;;7.30;;
11541;SDS011;5827;49.482;7.716;2023-03-16T00:35:37;8.67;;;7.47;;
11541;SDS011;5827;49.482;7.716;2023-03-16T00:37:38;8.60;;;7.23;;
11541;SDS011;5827;49.482;7.716;2023-03-16T00:39:42;9.70;;;7.40;;
11541;SDS011;5827;49.482;7.716;2023-03-16T00:41:44;8.47;;;6.90;;
11541;SDS011;5827;49.482;7.716;2023-03-16T00:43:46;9.23;;;7.30;;
11541;SDS011;5827;49.482;7.716;2023-03-16T00:45:49;9.20;;;6.77;;
11541;SDS011;5827;49.482;7.716;2023-03-16T00:47:51;7.63;;;6.83;;
11541;SDS011;5827;49.482;7.716;2023-03-16T00:49:53;8.47;;;6.27;;
11541;SDS011;5827;49.482;7.716;2023-03-16T00:51:55;8.93;;;6.60;;
11541;SDS011;5827;49.482;7.716;2023-03-16T00:53:56;8.60;;;6.23;;
11541;SDS011;5827;49.482;7.716;2023-03-16T00:55:58;10.53;;;6.17;;
11541;SDS011;5827;49.482;7.716;2023-03-16T00:58:02;10.40;;;7.30;;
11541;SDS011;5827;49.482;7.716;2023-03-16T01:00:04;10.33;;;7.30;;
11541;SDS011;5827;49.482;7.716;2023-03-16T01:02:15;11.40;;;8.37;;
11541;SDS011;5827;49.482;7.716;2023-03-16T01:04:22;11.73;;;8.77;;
11541;SDS011;5827;49.482;7.716;2023-03-16T01:06:24;9.90;;;7.20;;
11541;SDS011;5827;49.482;7.716;2023-03-16T01:08:26;11.53;;;7.97;;
11541;SDS011;5827;49.482;7.716;2023-03-16T01:10:28;7.67;;;5.93;;
11541;SDS011;5827;49.482;7.716;2023-03-16T01:12:29;8.00;;;6.40;;
11541;SDS011;5827;49.482;7.716;2023-03-16T01:14:31;8.37;;;6.57;;
11541;SDS011;5827;49.482;7.716;2023-03-16T01:16:34;9.07;;;7.27;;
11541;SDS011;5827;49.482;7.716;2023-03-16T01:18:37;10.03;;;7.03;;
11541;SDS011;5827;49.482;7.716;2023-03-16T01:20:39;8.20;;;7.10;;
11541;SDS011;5827;49.482;7.716;2023-03-16T01:22:42;9.03;;;7.23;;
11541;SDS011;5827;49.482;7.716;2023-03-16T01:24:44;10.93;;;7.93;;
11541;SDS011;5827;49.482;7.716;2023-03-16T01:26:46;10.47;;;8.00;;
11541;SDS011;5827;49.482;7.716;2023-03-16T01:28:47;10.20;;;7.70;;
11541;SDS011;5827;49.482;7.716;2023-03-16T01:30:49;8.73;;;7.07;;
11541;SDS011;5827;49.482;7.716;2023-03-16T01:32:53;10.83;;;6.83;;
11541;SDS011;5827;49.482;7.716;2023-03-16T01:34:55;7.80;;;6.40;;
11541;SDS011;5827;49.482;7.716;2023-03-16T01:36:57;9.73;;;6.03;;
11541;SDS011;5827;49.482;7.716;2023-03-16T01:38:59;8.03;;;6.13;;
11541;SDS011;5827;49.482;7.716;2023-03-16T01:41:00;9.23;;;6.30;;
11541;SDS011;5827;49.482;7.716;2023-03-16T01:43:03;9.20;;;6.77;;
11541;SDS011;5827;49.482;7.716;2023-03-16T01:45:06;9.00;;;6.77;;
11541;SDS011;5827;49.482;7.716;2023-03-16T01:47:46;9.63;;;7.00;;
11541;SDS011;5827;49.482;7.716;2023-03-16T01:49:48;9.23;;;6.60;;
11541;SDS011;5827;49.482;7.716;2023-03-16T01:51:55;11.97;;;7.77;;
11541;SDS011;5827;49.482;7.716;2023-03-16T01:54:01;14.17;;;9.30;;
11541;SDS011;5827;49.482;7.716;2023-03-16T01:56:07;16.03;;;11.13;;
11541;SDS011;5827;49.482;7.716;2023-03-16T01:58:11;16.50;;;12.57;;
11541;SDS011;5827;49.482;7.716;2023-03-16T02:00:14;11.37;;;9.20;;
11541;SDS011;5827;49.482;7.716;2023-03-16T02:02:20;17.83;;;12.70;;
11541;SDS011;5827;49.482;7.716;2023-03-16T02:04:43;19.60;;;13.17;;
11541;SDS011;5827;49.482;7.716;2023-03-16T02:06:51;10.23;;;7.93;;
11541;SDS011;5827;49.482;7.716;2023-03-16T02:08:57;9.87;;;7.23;;
11541;SDS011;5827;49.482;7.716;2023-03-16T02:11:00;11.50;;;8.17;;
11541;SDS011;5827;49.482;7.716;2023-03-16T02:13:03;12.50;;;8.53;;
11541;SDS011;5827;49.482;7.716;2023-03-16T02:15:05;10.13;;;7.33;;
11541;SDS011;5827;49.482;7.716;2023-03-16T02:17:07;11.07;;;7.80;;
11541;SDS011;5827;49.482;7.716;2023-03-16T02:19:10;12.40;;;7.83;;
11541;SDS011;5827;49.482;7.716;2023-03-16T02:21:18;10.20;;;7.57;;
11541;SDS011;5827;49.482;7.716;2023-03-16T02:23:26;9.30;;;7.40;;
11541;SDS011;5827;49.482;7.716;2023-03-16T02:25:28;11.27;;;7.30;;
11541;SDS011;5827;49.482;7.716;2023-03-16T02:27:39;9.83;;;6.53;;
11541;SDS011;5827;49.482;7.716;2023-03-16T02:29:57;10.00;;;6.70;;
11541;SDS011;5827;49.482;7.716;2023-03-16T02:32:03;9.73;;;7.50;;
11541;SDS011;5827;49.482;7.716;2023-03-16T02:34:05;10.37;;;6.77;;
11541;SDS011;5827;49.482;7.716;2023-03-16T02:36:08;10.10;;;7.13;;
11541;SDS011;5827;49.482;7.716;2023-03-16T02:38:10;10.10;;;7.40;;
11541;SDS011;5827;49.482;7.716;2023-03-16T02:40:15;13.87;;;8.47;;
11541;SDS011;5827;49.482;7.716;2023-03-16T02:42:22;9.53;;;7.30;;
11541;SDS011;5827;49.482;7.716;2023-03-16T02:44:26;10.60;;;7.10;;
11541;SDS011;5827;49.482;7.716;2023-03-16T02:46:34;8.80;;;6.60;;
11541;SDS011;5827;49.482;7.716;2023-03-16T02:48:36;11.80;;;7.37;;
11541;SDS011;5827;49.482;7.716;2023-03-16T02:50:44;8.70;;;6.87;;
11541;SDS011;5827;49.482;7.716;2023-03-16T02:52:47;11.27;;;7.43;;
11541;SDS011;5827;49.482;7.716;2023-03-16T02:54:48;13.70;;;8.90;;
11541;SDS011;5827;49.482;7.716;2023-03-16T02:56:50;20.90;;;12.37;;
11541;SDS011;5827;49.482;7.716;2023-03-16T02:58:52;21.60;;;13.30;;
11541;SDS011;5827;49.482;7.716;2023-03-16T03:00:53;22.80;;;13.87;;
11541;SDS011;5827;49.482;7.716;2023-03-16T03:02:57;25.77;;;14.10;;
11541;SDS011;5827;49.482;7.716;2023-03-16T03:04:58;23.43;;;13.37;;
11541;SDS011;5827;49.482;7.716;2023-03-16T03:07:01;21.70;;;12.07;;
11541;SDS011;5827;49.482;7.716;2023-03-16T03:09:04;19.57;;;12.00;;
11541;SDS011;5827;49.482;7.716;2023-03-16T03:11:06;16.40;;;10.23;;
11541;SDS011;5827;49.482;7.716;2023-03-16T03:13:08;11.47;;;8.27;;
11541;SDS011;5827;49.482;7.716;2023-03-16T03:15:11;15.57;;;9.57;;
11541;SDS011;5827;49.482;7.716;2023-03-16T03:17:13;16.30;;;9.60;;
11541;SDS011;5827;49.482;7.716;2023-03-16T03:19:16;17.47;;;9.73;;
11541;SDS011;5827;49.482;7.716;2023-03-16T03:21:18;12.47;;;8.27;;
11541;SDS011;5827;49.482;7.716;2023-03-16T03:23:19;10.97;;;7.07;;
11541;SDS011;5827;49.482;7.716;2023-03-16T03:25:21;8.73;;;6.80;;
11541;SDS011;5827;49.482;7.716;2023-03-16T03:27:23;11.10;;;7.67;;
11541;SDS011;5827;49.482;7.716;2023-03-16T03:29:24;10.27;;;7.33;;
11541;SDS011;5827;49.482;7.716;2023-03-16T03:31:33;9.07;;;7.00;;
11541;SDS011;5827;49.482;7.716;2023-03-16T03:33:35;9.23;;;7.23;;
11541;SDS011;5827;49.482;7.716;2023-03-16T03:35:38;9.00;;;6.70;;
11541;SDS011;5827;49.482;7.716;2023-03-16T03:37:41;10.23;;;6.83;;
11541;SDS011;5827;49.482;7.716;2023-03-16T03:39:43;9.37;;;6.97;;
11541;SDS011;5827;49.482;7.716;2023-03-16T03:41:45;8.13;;;6.13;;
11541;SDS011;5827;49.482;7.716;2023-03-16T03:43:47;8.77;;;6.73;;
11541;SDS011;5827;49.482;7.716;2023-03-16T03:45:48;8.93;;;6.77;;
11541;SDS011;5827;49.482;7.716;2023-03-16T03:47:50;9.63;;;7.17;;
11541;SDS011;5827;49.482;7.716;2023-03-16T03:49:51;10.60;;;7.23;;
11541;SDS011;5827;49.482;7.716;2023-03-16T03:51:54;10.40;;;7.27;;
11541;SDS011;5827;49.482;7.716;2023-03-16T03:53:58;11.67;;;7.40;;
11541;SDS011;5827;49.482;7.716;2023-03-16T03:55:59;10.10;;;7.20;;
11541;SDS011;5827;49.482;7.716;2023-03-16T03:58:01;14.33;;;9.53;;
11541;SDS011;5827;49.482;7.716;2023-03-16T04:00:03;13.90;;;8.43;;
11541;SDS011;5827;49.482;7.716;2023-03-16T04:02:09;11.83;;;7.87;;
11541;SDS011;5827;49.482;7.716;2023-03-16T04:04:12;11.40;;;7.70;;
11541;SDS011;5827;49.482;7.716;2023-03-16T04:06:13;11.80;;;7.43;;
11541;SDS011;5827;49.482;7.716;2023-03-16T04:08:16;10.07;;;7.40;;
11541;SDS011;5827;49.482;7.716;2023-03-16T04:10:18;15.33;;;9.00;;
11541;SDS011;5827;49.482;7.716;2023-03-16T04:12:20;11.47;;;8.27;;
11541;SDS011;5827;49.482;7.716;2023-03-16T04:14:21;13.30;;;8.90;;
11541;SDS011;5827;49.482;7.716;2023-03-16T04:16:23;13.47;;;8.03;;
11541;SDS011;5827;49.482;7.716;2023-03-16T04:18:25;10.73;;;7.93;;
11541;SDS011;5827;49.482;7.716;2023-03-16T04:20:27;11.23;;;7.40;;
11541;SDS011;5827;49.482;7.716;2023-03-16T04:22:29;11.60;;;7.83;;
11541;SDS011;5827;49.482;7.716;2023-03-16T04:24:31;11.13;;;7.93;;
11541;SDS011;5827;49.482;7.716;2023-03-16T04:26:34;10.57;;;7.53;;
11541;SDS011;5827;49.482;7.716;2023-03-16T04:28:36;11.80;;;7.60;;
11541;SDS011;5827;49.482;7.716;2023-03-16T04:30:38;11.30;;;7.33;;
11541;SDS011;5827;49.482;7.716;2023-03-16T04:32:42;9.90;;;7.50;;
11541;SDS011;5827;49.482;7.716;2023-03-16T04:34:43;8.33;;;6.70;;
11541;SDS011;5827;49.482;7.716;2023-03-16T04:36:46;11.03;;;7.43;;
11541;SDS011;5827;49.482;7.716;2023-03-16T04:38:47;12.33;;;7.97;;
11541;SDS011;5827;49.482;7.716;2023-03-16T04:40:50;12.33;;;8.03;;
11541;SDS011;5827;49.482;7.716;2023-03-16T04:42:52;10.40;;;7.50;;
11541;SDS011;5827;49.482;7.716;2023-03-16T04:44:53;10.87;;;7.67;;
11541;SDS011;5827;49.482;7.716;2023-03-16T04:46:55;12.67;;;8.37;;
11541;SDS011;5827;49.482;7.716;2023-03-16T04:48:58;13.93;;;9.40;;
11541;SDS011;5827;49.482;7.716;2023-03-16T04:50:59;14.37;;;9.37;;
11541;SDS011;5827;49.482;7.716;2023-03-16T04:53:02;18.93;;;12.67;;
11541;SDS011;5827;49.482;7.716;2023-03-16T04:55:04;16.33;;;11.33;;
11541;SDS011;5827;49.482;7.716;2023-03-16T04:57:07;17.87;;;12.00;;
11541;SDS011;5827;49.482;7.716;2023-03-16T04:59:09;17.50;;;10.20;;
11541;SDS011;5827;49.482;7.716;2023-03-16T05:01:11;11.20;;;8.70;;
11541;SDS011;5827;49.482;7.716;2023-03-16T05:03:12;14.90;;;8.37;;
11541;SDS011;5827;49.482;7.716;2023-03-16T05:05:15;10.67;;;7.80;;
11541;SDS011;5827;49.482;7.716;2023-03-16T05:07:17;11.60;;;8.07;;
11541;SDS011;5827;49.482;7.716;2023-03-16T05:09:18;11.27;;;7.87;;
11541;SDS011;5827;49.482;7.716;2023-03-16T05:11:20;10.77;;;8.03;;
11541;SDS011;5827;49.482;7.716;2023-03-16T05:13:23;11.57;;;8.70;;
11541;SDS011;5827;49.482;7.716;2023-03-16T05:15:25;12.67;;;8.27;;
11541;SDS011;5827;49.482;7.716;2023-03-16T05:17:27;11.63;;;8.27;;
11541;SDS011;5827;49.482;7.716;2023-03-16T05:19:29;12.63;;;8.47;;
11541;SDS011;5827;49.482;7.716;2023-03-16T05:21:30;11.87;;;8.13;;
11541;SDS011;5827;49.482;7.716;2023-03-16T05:23:34;10.60;;;7.90;;
11541;SDS011;5827;49.482;7.716;2023-03-16T05:25:35;11.13;;;8.20;;
11541;SDS011;5827;49.482;7.716;2023-03-16T05:27:38;12.40;;;8.07;;
11541;SDS011;5827;49.482;7.716;2023-03-16T05:29:42;10.53;;;7.83;;
11541;SDS011;5827;49.482;7.716;2023-03-16T05:31:45;10.63;;;8.07;;
11541;SDS011;5827;49.482;7.716;2023-03-16T05:33:47;12.50;;;8.60;;
11541;SDS011;5827;49.482;7.716;2023-03-16T05:35:49;12.13;;;8.70;;
11541;SDS011;5827;49.482;7.716;2023-03-16T05:37:51;12.00;;;8.23;;
11541;SDS011;5827;49.482;7.716;2023-03-16T05:39:52;11.83;;;8.40;;
11541;SDS011;5827;49.482;7.716;2023-03-16T05:41:56;10.87;;;8.07;;
11541;SDS011;5827;49.482;7.716;2023-03-16T05:43:58;11.67;;;8.57;;
11541;SDS011;5827;49.482;7.716;2023-03-16T05:46:01;13.90;;;9.33;;
11541;SDS011;5827;49.482;7.716;2023-03-16T05:48:03;13.10;;;8.47;;
11541;SDS011;5827;49.482;7.716;2023-03-16T05:50:05;12.07;;;8.97;;
11541;SDS011;5827;49.482;7.716;2023-03-16T05:52:10;13.27;;;8.40;;
11541;SDS011;5827;49.482;7.716;2023-03-16T05:54:11;12.20;;;9.20;;
11541;SDS011;5827;49.482;7.716;2023-03-16T05:56:13;10.63;;;7.53;;
11541;SDS011;5827;49.482;7.716;2023-03-16T05:58:14;12.33;;;7.63;;
11541;SDS011;5827;49.482;7.716;2023-03-16T06:00:16;12.40;;;7.37;;
11541;SDS011;5827;49.482;7.716;2023-03-16T06:02:21;12.10;;;7.73;;
11541;SDS011;5827;49.482;7.716;2023-03-16T06:04:22;10.57;;;8.43;;
11541;SDS011;5827;49.482;7.716;2023-03-16T06:06:24;10.83;;;8.23;;
11541;SDS011;5827;49.482;7.716;2023-03-16T06:08:26;11.30;;;7.70;;
11541;SDS011;5827;49.482;7.716;2023-03-16T06:10:27;11.77;;;8.30;;
11541;SDS011;5827;49.482;7.716;2023-03-16T06:12:29;10.13;;;7.87;;
11541;SDS011;5827;49.482;7.716;2023-03-16T06:14:30;11.43;;;8.17;;
11541;SDS011;5827;49.482;7.716;2023-03-16T06:16:32;11.33;;;8.33;;
11541;SDS011;5827;49.482;7.716;2023-03-16T06:18:35;12.03;;;8.17;;
11541;SDS011;5827;49.482;7.716;2023-03-16T06:20:37;12.57;;;8.93;;
11541;SDS011;5827;49.482;7.716;2023-03-16T06:22:39;14.80;;;9.77;;
11541;SDS011;5827;49.482;7.716;2023-03-16T06:24:41;13.10;;;9.40;;
11541;SDS011;5827;49.482;7.716;2023-03-16T06:26:43;13.83;;;8.83;;
11541;SDS011;5827;49.482;7.716;2023-03-16T06:28:46;13.47;;;8.63;;
11541;SDS011;5827;49.482;7.716;2023-03-16T06:30:48;12.97;;;8.70;;
11541;SDS011;5827;49.482;7.716;2023-03-16T06:32:53;10.90;;;7.73;;
11541;SDS011;5827;49.482;7.716;2023-03-16T06:34:56;11.20;;;8.23;;
11541;SDS011;5827;49.482;7.716;2023-03-16T06:37:01;15.30;;;8.53;;
11541;SDS011;5827;49.482;7.716;2023-03-16T06:39:02;14.90;;;9.50;;
11541;SDS011;5827;49.482;7.716;2023-03-16T06:41:04;12.67;;;8.70;;
11541;SDS011;5827;49.482;7.716;2023-03-16T06:43:06;12.43;;;8.70;;
11541;SDS011;5827;49.482;7.716;2023-03-16T06:45:08;12.43;;;8.80;;
11541;SDS011;5827;49.482;7.716;2023-03-16T06:47:12;11.90;;;8.60;;
11541;SDS011;5827;49.482;7.716;2023-03-16T06:49:13;13.83;;;9.17;;
11541;SDS011;5827;49.482;7.716;2023-03-16T06:51:16;11.57;;;9.17;;
11541;SDS011;5827;49.482;7.716;2023-03-16T06:53:18;14.70;;;9.80;;
11541;SDS011;5827;49.482;7.716;2023-03-16T06:55:21;11.20;;;8.83;;
11541;SDS011;5827;49.482;7.716;2023-03-16T06:57:22;13.07;;;9.30;;
11541;SDS011;5827;49.482;7.716;2023-03-16T06:59:24;11.93;;;9.13;;
11541;SDS011;5827;49.482;7.716;2023-03-16T07:01:26;15.27;;;10.63;;
11541;SDS011;5827;49.482;7.716;2023-03-16T07:03:27;14.17;;;11.00;;
11541;SDS011;5827;49.482;7.716;2023-03-16T07:05:29;16.20;;;11.40;;
11541;SDS011;5827;49.482;7.716;2023-03-16T07:07:32;14.87;;;11.00;;
11541;SDS011;5827;49.482;7.716;2023-03-16T07:09:33;16.03;;;11.17;;
11541;SDS011;5827;49.482;7.716;2023-03-16T07:11:35;15.60;;;11.47;;
11541;SDS011;5827;49.482;7.716;2023-03-16T07:13:37;15.63;;;10.80;;
11541;SDS011;5827;49.482;7.716;2023-03-16T07:15:38;15.43;;;11.63;;
11541;SDS011;5827;49.482;7.716;2023-03-16T07:17:41;17.43;;;12.37;;
11541;SDS011;5827;49.482;7.716;2023-03-16T07:19:42;17.83;;;12.27;;
11541;SDS011;5827;49.482;7.716;2023-03-16T07:21:44;18.27;;;12.83;;
11541;SDS011;5827;49.482;7.716;2023-03-16T07:23:47;16.70;;;12.40;;
11541;SDS011;5827;49.482;7.716;2023-03-16T07:25:48;17.57;;;12.43;;
11541;SDS011;5827;49.482;7.716;2023-03-16T07:27:51;15.97;;;11.17;;
11541;SDS011;5827;49.482;7.716;2023-03-16T07:29:52;16.27;;;11.10;;
11541;SDS011;5827;49.482;7.716;2023-03-16T07:31:54;14.80;;;11.27;;
11541;SDS011;5827;49.482;7.716;2023-03-16T07:33:55;14.30;;;12.10;;
11541;SDS011;5827;49.482;7.716;2023-03-16T07:35:57;14.47;;;10.67;;
11541;SDS011;5827;49.482;7.716;2023-03-16T07:37:58;12.90;;;10.07;;
11541;SDS011;5827;49.482;7.716;2023-03-16T07:40:01;14.23;;;10.43;;
11541;SDS011;5827;49.482;7.716;2023-03-16T07:42:06;14.87;;;11.03;;
11541;SDS011;5827;49.482;7.716;2023-03-16T07:44:07;13.83;;;10.00;;
11541;SDS011;5827;49.482;7.716;2023-03-16T07:46:09;16.80;;;10.93;;
11541;SDS011;5827;49.482;7.716;2023-03-16T07:48:12;18.93;;;11.53;;
11541;SDS011;5827;49.482;7.716;2023-03-16T07:50:14;16.23;;;11.00;;
11541;SDS011;5827;49.482;7.716;2023-03-16T07:52:18;13.50;;;11.40;;
11541;SDS011;5827;49.482;7.716;2023-03-16T07:54:19;13.33;;;10.43;;
11541;SDS011;5827;49.482;7.716;2023-03-16T07:56:22;16.00;;;11.03;;
11541;SDS011;5827;49.482;7.716;2023-03-16T07:58:24;12.17;;;9.77;;
11541;SDS011;5827;49.482;7.716;2023-03-16T08:00:25;12.10;;;9.97;;
11541;SDS011;5827;49.482;7.716;2023-03-16T08:02:27;13.27;;;9.67;;
11541;SDS011;5827;49.482;7.716;2023-03-16T08:04:28;12.90;;;10.00;;
11541;SDS011;5827;49.482;7.716;2023-03-16T08:06:30;12.93;;;10.67;;
11541;SDS011;5827;49.482;7.716;2023-03-16T08:08:31;12.97;;;9.93;;
11541;SDS011;5827;49.482;7.716;2023-03-16T08:10:33;10.50;;;9.20;;
11541;SDS011;5827;49.482;7.716;2023-03-16T08:12:36;11.73;;;9.23;;
11541;SDS011;5827;49.482;7.716;2023-03-16T08:14:38;11.17;;;8.93;;
11541;SDS011;5827;49.482;7.716;2023-03-16T08:16:40;11.80;;;8.70;;
11541;SDS011;5827;49.482;7.716;2023-03-16T08:18:42;10.30;;;8.20;;
11541;SDS011;5827;49.482;7.716;2023-03-16T08:20:43;10.80;;;8.47;;
11541;SDS011;5827;49.482;7.716;2023-03-16T08:22:45;9.80;;;7.10;;
11541;SDS011;5827;49.482;7.716;2023-03-16T08:24:49;7.83;;;6.00;;
11541;SDS011;5827;49.482;7.716;2023-03-16T08:26:51;8.17;;;7.23;;
11541;SDS011;5827;49.482;7.716;2023-03-16T08:28:54;8.07;;;5.87;;
11541;SDS011;5827;49.482;7.716;2023-03-16T08:30:55;7.40;;;5.53;;
11541;SDS011;5827;49.482;7.716;2023-03-16T08:32:57;6.77;;;4.87;;
11541;SDS011;5827;49.482;7.716;2023-03-16T08:35:00;7.70;;;5.80;;
11541;SDS011;5827;49.482;7.716;2023-03-16T08:37:01;6.93;;;5.67;;
11541;SDS011;5827;49.482;7.716;2023-03-16T08:39:04;7.80;;;5.17;;
11541;SDS011;5827;49.482;7.716;2023-03-16T08:41:05;7.33;;;5.40;;
11541;SDS011;5827;49.482;7.716;2023-03-16T08:43:07;8.27;;;4.93;;
11541;SDS011;5827;49.482;7.716;2023-03-16T08:45:11;6.27;;;4.90;;
11541;SDS011;5827;49.482;7.716;2023-03-16T08:47:13;7.33;;;5.57;;
11541;SDS011;5827;49.482;7.716;2023-03-16T08:49:16;8.53;;;5.00;;
11541;SDS011;5827;49.482;7.716;2023-03-16T08:51:19;5.40;;;4.73;;
11541;SDS011;5827;49.482;7.716;2023-03-16T08:53:21;6.13;;;4.60;;
11541;SDS011;5827;49.482;7.716;2023-03-16T08:55:22;5.70;;;4.00;;
11541;SDS011;5827;49.482;7.716;2023-03-16T08:57:25;7.07;;;5.20;;
11541;SDS011;5827;49.482;7.716;2023-03-16T08:59:27;6.33;;;4.63;;
11541;SDS011;5827;49.482;7.716;2023-03-16T09:01:30;6.90;;;4.67;;
11541;SDS011;5827;49.482;7.716;2023-03-16T09:03:31;8.53;;;4.77;;
11541;SDS011;5827;49.482;7.716;2023-03-16T09:05:33;6.60;;;4.90;;
11541;SDS011;5827;49.482;7.716;2023-03-16T09:07:35;7.80;;;5.50;;
11541;SDS011;5827;49.482;7.716;2023-03-16T09:09:38;5.17;;;4.27;;
11541;SDS011;5827;49.482;7.716;2023-03-16T09:11:39;4.60;;;4.07;;
11541;SDS011;5827;49.482;7.716;2023-03-16T09:13:41;6.97;;;4.90;;
11541;SDS011;5827;49.482;7.716;2023-03-16T09:15:44;4.20;;;3.80;;
11541;SDS011;5827;49.482;7.716;2023-03-16T09:17:46;5.63;;;4.30;;
11541;SDS011;5827;49.482;7.716;2023-03-16T09:19:49;5.17;;;4.50;;
11541;SDS011;5827;49.482;7.716;2023-03-16T09:21:50;6.87;;;3.90;;
11541;SDS011;5827;49.482;7.716;2023-03-16T09:23:52;3.83;;;3.10;;
11541;SDS011;5827;49.482;7.716;2023-03-16T09:25:55;6.30;;;3.67;;
11541;SDS011;5827;49.482;7.716;2023-03-16T09:27:58;5.13;;;3.40;;
11541;SDS011;5827;49.482;7.716;2023-03-16T09:30:00;4.37;;;3.30;;
11541;SDS011;5827;49.482;7.716;2023-03-16T09:32:03;3.97;;;3.20;;
11541;SDS011;5827;49.482;7.716;2023-03-16T09:34:06;4.27;;;3.10;;
11541;SDS011;5827;49.482;7.716;2023-03-16T09:36:08;4.97;;;3.33;;
11541;SDS011;5827;49.482;7.716;2023-03-16T09:38:10;5.37;;;3.50;;
11541;SDS011;5827;49.482;7.716;2023-03-16T09:40:22;4.53;;;3.10;;
11541;SDS011;5827;49.482;7.716;2023-03-16T09:42:32;4.87;;;2.73;;
11541;SDS011;5827;49.482;7.716;2023-03-16T09:44:38;3.27;;;2.97;;
11541;SDS011;5827;49.482;7.716;2023-03-16T09:46:46;3.33;;;3.03;;
11541;SDS011;5827;49.482;7.716;2023-03-16T09:48:50;3.67;;;2.80;;
11541;SDS011;5827;49.482;7.716;2023-03-16T09:50:53;4.53;;;3.00;;
11541;SDS011;5827;49.482;7.716;2023-03-16T09:52:59;6.93;;;2.80;;
11541;SDS011;5827;49.482;7.716;2023-03-16T09:55:11;5.80;;;2.87;;
11541;SDS011;5827;49.482;7.716;2023-03-16T09:57:22;3.33;;;2.37;;
11541;SDS011;5827;49.482;7.716;2023-03-16T09:59:26;3.73;;;2.40;;
11541;SDS011;5827;49.482;7.716;2023-03-16T10:01:31;4.20;;;2.40;;
11541;SDS011;5827;49.482;7.716;2023-03-16T10:03:50;2.90;;;2.50;;
11541;SDS011;5827;49.482;7.716;2023-03-16T10:06:03;4.73;;;2.00;;
11541;SDS011;5827;49.482;7.716;2023-03-16T10:08:11;2.47;;;2.00;;
11541;SDS011;5827;49.482;7.716;2023-03-16T10:10:20;2.77;;;1.90;;
11541;SDS011;5827;49.482;7.716;2023-03-16T10:12:33;3.23;;;1.73;;
11541;SDS011;5827;49.482;7.716;2023-03-16T10:14:41;2.33;;;1.53;;
11541;SDS011;5827;49.482;7.716;2023-03-16T10:16:48;3.47;;;1.67;;
11541;SDS011;5827;49.482;7.716;2023-03-16T10:18:56;3.37;;;1.53;;
11541;SDS011;5827;49.482;7.716;2023-03-16T10:21:03;2.30;;;1.93;;
11541;SDS011;5827;49.482;7.716;2023-03-16T10:23:16;3.63;;;2.43;;
11541;SDS011;5827;49.482;7.716;2023-03-16T10:25:21;2.83;;;2.20;;
11541;SDS011;5827;49.482;7.716;2023-03-16T10:27:27;2.30;;;1.50;;
11541;SDS011;5827;49.482;7.716;2023-03-16T10:29:31;3.23;;;1.70;;
11541;SDS011;5827;49.482;7.716;2023-03-16T10:31:37;2.03;;;1.50;;
11541;SDS011;5827;49.482;7.716;2023-03-16T10:33:41;1.20;;;1.10;;
11541;SDS011;5827;49.482;7.716;2023-03-16T10:35:44;1.43;;;0.90;;
11541;SDS011;5827;49.482;7.716;2023-03-16T10:37:49;2.30;;;1.23;;
11541;SDS011;5827;49.482;7.716;2023-03-16T10:39:52;0.80;;;0.80;;
11541;SDS011;5827;49.482;7.716;2023-03-16T10:41:55;2.20;;;0.97;;
11541;SDS011;5827;49.482;7.716;2023-03-16T10:43:58;1.20;;;1.00;;
11541;SDS011;5827;49.482;7.716;2023-03-16T10:46:08;1.03;;;0.97;;
11541;SDS011;5827;49.482;7.716;2023-03-16T10:48:11;1.40;;;1.20;;
11541;SDS011;5827;49.482;7.716;2023-03-16T10:50:15;2.27;;;1.00;;
11541;SDS011;5827;49.482;7.716;2023-03-16T10:52:25;0.93;;;0.90;;
11541;SDS011;5827;49.482;7.716;2023-03-16T10:54:35;1.23;;;0.97;;
11541;SDS011;5827;49.482;7.716;2023-03-16T10:56:39;1.90;;;1.00;;
11541;SDS011;5827;49.482;7.716;2023-03-16T10:58:41;3.13;;;1.03;;
11541;SDS011;5827;49.482;7.716;2023-03-16T11:00:45;0.80;;;0.80;;
11541;SDS011;5827;49.482;7.716;2023-03-16T11:02:46;1.17;;;1.00;;
11541;SDS011;5827;49.482;7.716;2023-03-16T11:04:50;1.53;;;1.17;;
11541;SDS011;5827;49.482;7.716;2023-03-16T11:06:53;1.43;;;1.10;;
11541;SDS011;5827;49.482;7.716;2023-03-16T11:09:02;1.70;;;1.00;;
11541;SDS011;5827;49.482;7.716;2023-03-16T11:11:09;1.27;;;1.17;;
11541;SDS011;5827;49.482;7.716;2023-03-16T11:13:14;1.30;;;1.10;;
11541;SDS011;5827;49.482;7.716;2023-03-16T11:15:17;2.17;;;1.10;;
11541;SDS011;5827;49.482;7.716;2023-03-16T11:17:20;1.37;;;1.00;;
11541;SDS011;5827;49.482;7.716;2023-03-16T11:19:29;1.87;;;1.00;;
11541;SDS011;5827;49.482;7.716;2023-03-16T11:21:36;1.07;;;0.97;;
11541;SDS011;5827;49.482;7.716;2023-03-16T11:23:42;2.03;;;1.37;;
11541;SDS011;5827;49.482;7.716;2023-03-16T11:25:49;1.13;;;0.90;;
11541;SDS011;5827;49.482;7.716;2023-03-16T11:27:57;2.07;;;0.90;;
11541;SDS011;5827;49.482;7.716;2023-03-16T11:30:10;1.17;;;0.80;;
11541;SDS011;5827;49.482;7.716;2023-03-16T11:32:17;2.90;;;1.07;;
11541;SDS011;5827;49.482;7.716;2023-03-16T11:34:26;1.57;;;1.10;;
11541;SDS011;5827;49.482;7.716;2023-03-16T11:36:33;1.13;;;0.97;;
11541;SDS011;5827;49.482;7.716;2023-03-16T11:38:44;1.47;;;1.03;;
11541;SDS011;5827;49.482;7.716;2023-03-16T11:40:54;1.07;;;1.07;;
11541;SDS011;5827;49.482;7.716;2023-03-16T11:43:02;1.83;;;1.20;;
11541;SDS011;5827;49.482;7.716;2023-03-16T11:45:15;2.73;;;1.03;;
11541;SDS011;5827;49.482;7.716;2023-03-16T11:47:23;1.20;;;1.10;;
11541;SDS011;5827;49.482;7.716;2023-03-16T11:49:44;1.90;;;1.20;;
11541;SDS011;5827;49.482;7.716;2023-03-16T11:51:57;3.10;;;1.30;;
11541;SDS011;5827;49.482;7.716;2023-03-16T11:54:07;1.53;;;1.07;;
11541;SDS011;5827;49.482;7.716;2023-03-16T11:58:51;0.93;;;0.90;;
11541;SDS011;5827;49.482;7.716;2023-03-16T12:01:04;1.13;;;0.83;;
11541;SDS011;5827;49.482;7.716;2023-03-16T12:05:37;1.17;;;1.00;;
11541;SDS011;5827;49.482;7.716;2023-03-16T12:07:50;1.73;;;1.17;;
11541;SDS011;5827;49.482;7.716;2023-03-16T12:10:06;1.53;;;1.20;;
11541;SDS011;5827;49.482;7.716;2023-03-16T12:12:23;2.03;;;0.97;;
11541;SDS011;5827;49.482;7.716;2023-03-16T12:14:35;2.67;;;1.00;;
11541;SDS011;5827;49.482;7.716;2023-03-16T12:16:42;1.00;;;1.00;;
11541;SDS011;5827;49.482;7.716;2023-03-16T12:18:50;1.40;;;1.10;;
11541;SDS011;5827;49.482;7.716;2023-03-16T12:20:55;1.17;;;1.00;;
11541;SDS011;5827;49.482;7.716;2023-03-16T12:23:01;1.93;;;1.20;;
11541;SDS011;5827;49.482;7.716;2023-03-16T12:25:11;1.33;;;1.17;;
11541;SDS011;5827;49.482;7.716;2023-03-16T12:27:20;1.63;;;0.90;;
11541;SDS011;5827;49.482;7.716;2023-03-16T12:29:26;3.87;;;1.23;;
11541;SDS011;5827;49.482;7.716;2023-03-16T12:31:38;1.00;;;1.00;;
11541;SDS011;5827;49.482;7.716;2023-03-16T12:33:52;1.20;;;1.10;;
11541;SDS011;5827;49.482;7.716;2023-03-16T12:36:02;1.30;;;1.20;;